createdAt,value
2023-01-26T00:00:05.443Z,18.75
2023-01-26T00:03:32.754Z,23.13
2023-01-26T00:06:41.710Z,20.13
2023-01-26T00:09:47.408Z,22.73
2023-01-26T00:12:52.352Z,21.23
2023-01-26T00:15:57.809Z,14.80
2023-01-26T00:19:04.078Z,17.33
2023-01-26T00:22:12.340Z,21.77
2023-01-26T00:25:20.419Z,20.63
2023-01-26T00:28:26.106Z,20.35
2023-01-26T00:31:31.687Z,19.20
2023-01-26T00:34:37.094Z,21.15
2023-01-26T00:37:46.842Z,19.60
2023-01-26T00:40:56.331Z,16.65
2023-01-26T00:44:02.950Z,12.85
2023-01-26T00:47:08.988Z,19.67
2023-01-26T00:50:14.545Z,20.13
2023-01-26T00:53:22.923Z,19.83
2023-01-26T00:56:29.182Z,22.30
2023-01-26T00:59:34.980Z,21.98
2023-01-26T01:02:40.121Z,18.33
2023-01-26T01:05:45.858Z,18.98
2023-01-26T01:08:53.483Z,20.40
2023-01-26T01:11:59.330Z,19.38
2023-01-26T01:15:05.084Z,22.45
2023-01-26T01:18:10.908Z,17.60
2023-01-26T01:21:17.008Z,22.38
2023-01-26T01:24:25.264Z,20.65
2023-01-26T01:27:30.314Z,22.17
2023-01-26T01:30:36.375Z,17.15
2023-01-26T01:33:41.727Z,18.63
2023-01-26T01:36:47.313Z,21.95
2023-01-26T01:39:54.928Z,20.20
2023-01-26T01:43:00.341Z,23.77
2023-01-26T01:46:09.320Z,16.52
2023-01-26T01:49:19.651Z,19.80
2023-01-26T01:52:27.665Z,21.88
2023-01-26T01:55:36.916Z,22.13
2023-01-26T01:58:44.033Z,21.02
2023-01-26T02:01:49.919Z,22.00
2023-01-26T02:04:54.906Z,18.77
2023-01-26T02:08:03.419Z,23.83
2023-01-26T02:11:13.383Z,24.65
2023-01-26T02:14:23.219Z,20.67
2023-01-26T02:17:28.562Z,22.73
2023-01-26T02:20:39.853Z,22.73
2023-01-26T02:23:51.348Z,21.02
2023-01-26T02:27:00.191Z,19.63
2023-01-26T02:30:06.385Z,19.77
2023-01-26T02:33:17.846Z,24.05
2023-01-26T02:36:24.007Z,23.30
2023-01-26T02:39:37.667Z,26.27
2023-01-26T02:42:45.450Z,24.23
2023-01-26T02:45:51.286Z,25.25
2023-01-26T02:49:11.401Z,26.55
2023-01-26T02:52:17.424Z,21.10
2023-01-26T02:55:28.860Z,14.65
2023-01-26T02:58:37.511Z,22.00
2023-01-26T03:01:44.680Z,27.20
2023-01-26T03:04:50.732Z,22.55
2023-01-26T03:07:55.796Z,23.45
2023-01-26T03:11:01.223Z,22.48
2023-01-26T03:14:11.042Z,22.08
2023-01-26T03:17:18.592Z,26.35
2023-01-26T03:20:35.883Z,22.98
2023-01-26T03:23:54.215Z,20.70
2023-01-26T03:27:11.455Z,22.92
2023-01-26T03:30:21.562Z,23.55
2023-01-26T03:33:26.635Z,22.02
2023-01-26T03:36:33.675Z,17.67
2023-01-26T03:39:50.927Z,18.25
2023-01-26T03:43:10.152Z,19.67
2023-01-26T03:46:32.121Z,20.77
2023-01-26T03:49:49.928Z,23.00
2023-01-26T03:53:07.463Z,17.35
2023-01-26T03:56:18.385Z,19.23
2023-01-26T03:59:37.772Z,21.05
2023-01-26T04:02:58.450Z,18.73
2023-01-26T04:06:16.773Z,22.20
2023-01-26T04:09:22.698Z,17.83
2023-01-26T04:12:27.548Z,19.60
2023-01-26T04:15:45.285Z,21.30
2023-01-26T04:19:05.392Z,19.70
2023-01-26T04:22:10.663Z,24.17
2023-01-26T04:25:16.348Z,17.50
2023-01-26T04:28:21.805Z,19.40
2023-01-26T04:31:26.992Z,21.88
2023-01-26T04:34:36.602Z,20.27
2023-01-26T04:37:41.959Z,22.08
2023-01-26T04:40:47.300Z,23.67
2023-01-26T04:43:52.172Z,23.35
2023-01-26T04:46:57.500Z,18.48
2023-01-26T04:50:04.924Z,20.02
2023-01-26T04:53:10.534Z,19.45
2023-01-26T04:56:20.959Z,18.20
2023-01-26T04:59:26.438Z,18.50
2023-01-26T05:02:31.560Z,20.05
2023-01-26T05:05:41.641Z,20.58
2023-01-26T05:08:46.566Z,19.90
2023-01-26T05:11:51.931Z,25.63
2023-01-26T05:14:57.791Z,23.20
2023-01-26T05:18:03.175Z,16.42
2023-01-26T05:21:10.798Z,21.25
2023-01-26T05:24:16.413Z,20.90
2023-01-26T05:27:24.351Z,20.25
2023-01-26T05:30:29.952Z,21.05
2023-01-26T05:33:34.915Z,23.65
2023-01-26T05:36:46.670Z,21.50
2023-01-26T05:39:51.758Z,23.17
2023-01-26T05:42:57.702Z,22.50
2023-01-26T05:46:02.580Z,21.58
2023-01-26T05:49:10.244Z,25.90
2023-01-26T05:52:19.151Z,27.00
2023-01-26T05:55:24.354Z,19.63
2023-01-26T05:58:29.601Z,19.67
2023-01-26T06:01:35.443Z,24.98
2023-01-26T06:04:43.669Z,22.90
2023-01-26T06:07:54.472Z,23.00
2023-01-26T06:11:02.771Z,23.77
2023-01-26T06:14:08.183Z,23.73
2023-01-26T06:17:13.292Z,28.17
2023-01-26T06:20:18.937Z,24.80
2023-01-26T06:23:26.696Z,21.35
2023-01-26T06:26:32.036Z,19.55
2023-01-26T06:29:38.917Z,22.80
2023-01-26T06:32:49.950Z,19.23
2023-01-26T06:35:55.935Z,15.45
2023-01-26T06:39:08.077Z,23.08
2023-01-26T06:42:13.179Z,29.17
2023-01-26T06:45:20.941Z,27.27
2023-01-26T06:48:27.979Z,28.13
2023-01-26T06:51:44.430Z,23.13
2023-01-26T06:54:53.849Z,18.17
2023-01-26T06:57:59.193Z,24.92
2023-01-26T07:01:04.155Z,24.50
2023-01-26T07:04:10.254Z,25.27
2023-01-26T07:07:15.708Z,26.33
2023-01-26T07:10:24.017Z,26.50
2023-01-26T07:13:29.282Z,26.02
2023-01-26T07:16:39.024Z,21.95
2023-01-26T07:19:45.684Z,24.50
2023-01-26T07:22:51.125Z,23.63
2023-01-26T07:25:59.953Z,28.20
2023-01-26T07:29:05.942Z,25.73
2023-01-26T07:32:12.014Z,25.92
2023-01-26T07:35:17.556Z,30.77
2023-01-26T07:38:22.862Z,20.15
2023-01-26T07:41:30.867Z,28.95
2023-01-26T07:44:38.173Z,28.73
2023-01-26T07:47:44.078Z,28.35
2023-01-26T07:50:50.299Z,30.38
2023-01-26T07:53:55.856Z,24.80
2023-01-26T07:57:07.996Z,24.05
2023-01-26T08:00:16.274Z,29.80
2023-01-26T08:03:22.654Z,22.55
2023-01-26T08:06:27.880Z,30.08
2023-01-26T08:09:33.514Z,27.73
2023-01-26T08:12:41.574Z,24.77
2023-01-26T08:15:46.416Z,28.73
2023-01-26T08:18:51.905Z,27.75
2023-01-26T08:21:57.818Z,25.63
2023-01-26T08:25:03.074Z,28.58
2023-01-26T08:28:10.582Z,28.52
2023-01-26T08:31:20.051Z,19.20
2023-01-26T08:34:26.761Z,33.00
2023-01-26T08:37:32.387Z,29.50
2023-01-26T08:40:37.897Z,30.10
2023-01-26T08:43:46.086Z,30.45
2023-01-26T08:46:50.958Z,26.20
2023-01-26T08:49:59.393Z,28.45
2023-01-26T08:53:04.347Z,27.67
2023-01-26T08:56:10.859Z,28.95
2023-01-26T08:59:18.560Z,30.83
2023-01-26T09:02:26.901Z,29.98
2023-01-26T09:05:34.406Z,32.45
2023-01-26T09:08:39.847Z,26.35
2023-01-26T09:11:44.910Z,30.52
2023-01-26T09:14:52.912Z,28.50
2023-01-26T09:18:00.542Z,30.95
2023-01-26T09:21:06.842Z,24.92
2023-01-26T09:24:11.930Z,32.17
2023-01-26T09:27:17.383Z,34.88
2023-01-26T09:30:25.230Z,34.22
2023-01-26T09:33:30.716Z,37.78
2023-01-26T09:36:35.601Z,34.58
2023-01-26T09:39:40.858Z,25.63
2023-01-26T09:42:50.121Z,39.25
2023-01-26T09:46:03.566Z,29.75
2023-01-26T09:49:10.364Z,29.67
2023-01-26T09:52:19.080Z,25.77
2023-01-26T09:55:24.927Z,30.20
2023-01-26T09:58:35.804Z,30.48
2023-01-26T10:01:46.879Z,33.08
2023-01-26T10:04:54.303Z,33.00
2023-01-26T10:07:59.108Z,32.58
2023-01-26T10:11:06.029Z,28.00
2023-01-26T10:14:14.514Z,31.63
2023-01-26T10:17:24.002Z,36.22
2023-01-26T10:20:31.630Z,36.10
2023-01-26T10:23:38.120Z,32.38
2023-01-26T10:26:42.943Z,34.10
2023-01-26T10:29:48.314Z,34.20
2023-01-26T10:32:56.110Z,41.40
2023-01-26T10:36:01.523Z,35.72
2023-01-26T10:39:08.209Z,42.13
2023-01-26T10:42:21.369Z,37.78
2023-01-26T10:48:34.409Z,34.20
2023-01-26T10:51:45.781Z,34.95
2023-01-26T10:54:51.115Z,40.03
2023-01-26T10:57:56.062Z,38.47
2023-01-26T11:01:02.279Z,36.65
2023-01-26T11:04:12.242Z,40.45
2023-01-26T11:07:30.685Z,41.17
2023-01-26T11:10:38.887Z,32.85
2023-01-26T11:13:45.517Z,38.35
2023-01-26T11:16:53.369Z,44.38
2023-01-26T11:20:08.798Z,43.05
2023-01-26T11:23:23.575Z,39.63
2023-01-26T11:26:43.820Z,45.30
2023-01-26T11:30:09.709Z,43.92
2023-01-26T11:33:20.456Z,40.00
2023-01-26T11:36:32.285Z,36.90
2023-01-26T11:39:40.723Z,33.08
2023-01-26T11:42:49.398Z,47.72
2023-01-26T11:46:05.081Z,37.53
2023-01-26T11:49:17.170Z,44.30
2023-01-26T11:52:27.490Z,40.78
2023-01-26T11:55:40.858Z,39.95
2023-01-26T11:58:49.476Z,45.97
2023-01-26T12:01:56.994Z,34.88
2023-01-26T12:05:06.245Z,35.88
2023-01-26T12:08:20.911Z,47.35
2023-01-26T12:11:31.608Z,39.58
2023-01-26T12:14:39.685Z,38.97
2023-01-26T12:17:47.578Z,42.33
2023-01-26T12:20:54.096Z,41.65
2023-01-26T12:24:03.134Z,41.90
2023-01-26T12:27:12.496Z,31.00
2023-01-26T12:30:35.900Z,40.67
2023-01-26T12:33:41.388Z,28.50
2023-01-26T12:36:51.065Z,29.88
2023-01-26T12:40:02.002Z,37.25
2023-01-26T12:43:14.312Z,32.72
2023-01-26T12:46:20.579Z,30.65
2023-01-26T12:49:29.405Z,44.50
2023-01-26T12:52:37.500Z,27.65
2023-01-26T12:55:47.794Z,37.58
2023-01-26T12:58:53.707Z,44.25
2023-01-26T13:01:59.149Z,36.40
2023-01-26T13:05:04.811Z,40.30
2023-01-26T13:08:25.931Z,46.20
2023-01-26T13:11:58.425Z,32.90
2023-01-26T13:15:09.361Z,43.35
2023-01-26T13:18:15.359Z,35.50
2023-01-26T13:21:28.998Z,36.55
2023-01-26T13:24:47.507Z,40.97
2023-01-26T13:27:58.494Z,40.47
2023-01-26T13:31:09.128Z,33.47
2023-01-26T13:34:17.158Z,42.78
2023-01-26T13:37:24.931Z,43.17
2023-01-26T13:40:31.920Z,44.03
2023-01-26T13:43:39.402Z,24.52
2023-01-26T13:46:50.822Z,48.75
2023-01-26T13:49:57.687Z,46.42
2023-01-26T13:53:03.573Z,36.78
2023-01-26T13:56:09.306Z,41.72
2023-01-26T13:59:15.703Z,51.05
2023-01-26T14:02:27.725Z,37.90
2023-01-26T14:05:38.303Z,52.05
2023-01-26T14:08:46.077Z,44.55
2023-01-26T14:11:56.824Z,46.20
2023-01-26T14:15:03.452Z,41.30
2023-01-26T14:18:23.114Z,26.77
2023-01-26T14:21:32.610Z,47.25
2023-01-26T14:24:39.839Z,42.67
2023-01-26T14:27:47.209Z,33.40
2023-01-26T14:30:54.399Z,45.47
2023-01-26T14:34:02.647Z,45.22
2023-01-26T14:37:11.602Z,38.53
2023-01-26T14:40:24.175Z,45.70
2023-01-26T14:46:41.220Z,40.13
2023-01-26T14:49:51.521Z,60.80
2023-01-26T14:52:57.806Z,37.47
2023-01-26T14:56:03.483Z,40.83
2023-01-26T14:59:26.217Z,45.15
2023-01-26T15:02:46.631Z,59.80
2023-01-26T15:06:06.347Z,58.25
2023-01-26T15:09:23.379Z,45.75
2023-01-26T15:12:31.416Z,30.00
2023-01-26T15:15:38.132Z,40.28
2023-01-26T15:28:35.585Z,44.05
2023-01-26T15:31:42.122Z,37.72
2023-01-26T15:34:49.604Z,32.83
2023-01-26T15:38:05.836Z,37.83
2023-01-26T15:41:11.802Z,39.75
2023-01-26T15:44:18.779Z,50.75
2023-01-26T15:47:24.055Z,56.35
2023-01-26T15:50:29.310Z,38.72
2023-01-26T15:53:36.809Z,55.85
2023-01-26T15:56:47.000Z,47.22
2023-01-26T15:59:51.946Z,34.45
2023-01-26T16:02:57.265Z,45.30
2023-01-26T16:06:02.219Z,35.83
2023-01-26T16:09:11.452Z,43.50
2023-01-26T16:12:33.270Z,36.83
2023-01-26T16:15:43.202Z,44.70
2023-01-26T16:18:48.203Z,34.58
2023-01-26T16:21:53.487Z,28.30
2023-01-26T16:25:04.226Z,37.20
2023-01-26T16:28:09.526Z,38.28
2023-01-26T16:31:16.203Z,29.80
2023-01-26T16:34:21.897Z,27.85
2023-01-26T16:37:26.807Z,27.15
2023-01-26T16:40:35.209Z,36.45
2023-01-26T16:43:44.688Z,31.80
2023-01-26T16:46:50.440Z,39.85
2023-01-26T16:49:55.607Z,18.88
2023-01-26T16:53:05.496Z,34.10
2023-01-26T16:56:15.041Z,32.15
2023-01-26T16:59:20.606Z,32.03
2023-01-26T17:02:26.907Z,29.45
2023-01-26T17:05:32.576Z,33.08
2023-01-26T17:08:38.077Z,38.90
2023-01-26T17:11:48.247Z,31.52
2023-01-26T17:14:54.407Z,41.78
2023-01-26T17:18:03.449Z,31.13
2023-01-26T17:21:08.979Z,27.60
2023-01-26T17:24:14.481Z,33.38
2023-01-26T17:27:22.517Z,35.35
2023-01-26T17:30:29.066Z,27.52
2023-01-26T17:33:33.958Z,35.47
2023-01-26T17:36:39.752Z,36.38
2023-01-26T17:39:45.005Z,38.92
2023-01-26T17:42:53.281Z,37.63
2023-01-26T17:46:04.689Z,39.20
2023-01-26T17:49:10.347Z,39.97
2023-01-26T17:52:26.093Z,43.38
2023-01-26T17:55:34.537Z,41.25
2023-01-26T17:58:42.588Z,44.83
2023-01-26T18:01:47.963Z,41.13
2023-01-26T18:04:53.137Z,45.25
2023-01-26T18:07:59.567Z,34.53
2023-01-26T18:11:04.943Z,41.22
2023-01-26T18:14:14.413Z,45.70
2023-01-26T18:17:20.377Z,39.58
2023-01-26T18:20:26.118Z,37.72
2023-01-26T18:23:31.195Z,42.50
2023-01-26T18:26:37.923Z,43.03
2023-01-26T18:29:46.046Z,37.38
2023-01-26T18:32:51.950Z,36.38
2023-01-26T18:35:56.845Z,30.83
2023-01-26T18:39:03.199Z,32.40
2023-01-26T18:42:08.306Z,28.85
2023-01-26T18:45:18.071Z,40.70
2023-01-26T18:48:22.978Z,24.60
2023-01-26T18:51:33.642Z,22.40
2023-01-26T18:54:38.538Z,25.80
2023-01-26T18:57:44.090Z,21.50
2023-01-26T19:00:52.206Z,26.48
2023-01-26T19:03:59.203Z,24.10
2023-01-26T19:07:04.734Z,15.52
2023-01-26T19:10:17.979Z,21.95
2023-01-26T19:13:33.095Z,20.70
2023-01-26T19:16:42.704Z,21.88
2023-01-26T19:19:47.851Z,20.85
2023-01-26T19:22:57.626Z,17.50
2023-01-26T19:26:03.013Z,20.95
2023-01-26T19:29:11.211Z,22.58
2023-01-26T19:32:19.108Z,20.10
2023-01-26T19:35:26.001Z,17.92
2023-01-26T19:38:32.791Z,22.95
2023-01-26T19:41:39.318Z,21.30
2023-01-26T19:44:44.305Z,21.42
2023-01-26T19:47:54.918Z,16.38
2023-01-26T19:51:06.778Z,13.90
2023-01-26T19:54:16.245Z,18.30
2023-01-26T19:57:22.759Z,17.27
2023-01-26T20:00:31.548Z,15.48
2023-01-26T20:03:45.253Z,17.23
2023-01-26T20:06:53.296Z,23.33
2023-01-26T20:09:58.563Z,21.45
2023-01-26T20:13:15.003Z,21.35
2023-01-26T20:16:21.806Z,18.15
2023-01-26T20:19:37.907Z,17.35
2023-01-26T20:22:54.398Z,21.35
2023-01-26T20:26:09.050Z,18.63
2023-01-26T20:29:17.218Z,21.25
2023-01-26T20:32:23.416Z,23.25
2023-01-26T20:35:31.057Z,25.45
2023-01-26T20:38:39.052Z,18.58
2023-01-26T20:42:05.660Z,13.45
2023-01-26T20:45:14.525Z,21.10
2023-01-26T20:48:19.812Z,19.55
2023-01-26T20:51:42.863Z,16.42
2023-01-26T20:54:48.564Z,21.83
2023-01-26T20:57:54.659Z,18.05
2023-01-26T21:01:21.922Z,27.40
2023-01-26T21:04:32.581Z,20.13
2023-01-26T21:07:42.215Z,24.63
2023-01-26T21:10:48.937Z,21.08
2023-01-26T21:13:56.815Z,18.00
2023-01-26T21:17:03.423Z,21.33
2023-01-26T21:20:09.615Z,25.55
2023-01-26T21:23:18.524Z,30.23
2023-01-26T21:26:25.171Z,24.30
2023-01-26T21:29:32.777Z,26.30
2023-01-26T21:32:40.276Z,24.58
2023-01-26T21:35:51.929Z,22.13
2023-01-26T21:39:02.170Z,29.53
2023-01-26T21:42:14.598Z,26.27
2023-01-26T21:45:32.281Z,26.95
2023-01-26T21:48:39.599Z,32.78
2023-01-26T21:51:59.626Z,29.48
2023-01-26T21:55:10.238Z,29.17
2023-01-26T21:58:27.824Z,29.15
2023-01-26T22:01:40.335Z,31.13
2023-01-26T22:04:48.281Z,31.80
2023-01-26T22:07:54.132Z,26.05
2023-01-26T22:11:01.773Z,22.77
2023-01-26T22:17:36.615Z,27.60
2023-01-26T22:20:52.560Z,22.58
2023-01-26T22:24:01.088Z,22.75
2023-01-26T22:27:11.648Z,28.90
2023-01-26T22:30:19.238Z,36.00
2023-01-26T22:33:27.595Z,28.70
2023-01-26T22:36:33.620Z,32.90
2023-01-26T22:39:47.654Z,26.00
2023-01-26T22:42:55.643Z,34.60
2023-01-26T22:46:06.009Z,26.05
2023-01-26T22:49:14.645Z,29.30
2023-01-26T22:52:20.392Z,28.88
2023-01-26T22:55:25.948Z,27.48
2023-01-26T22:58:39.629Z,24.30
2023-01-26T23:01:49.896Z,31.50
2023-01-26T23:05:01.469Z,30.48
2023-01-26T23:08:06.693Z,36.47
2023-01-26T23:11:13.935Z,31.70
2023-01-26T23:14:22.591Z,28.08
2023-01-26T23:17:30.583Z,27.70
2023-01-26T23:20:36.005Z,31.58
2023-01-26T23:23:42.381Z,25.75
2023-01-26T23:26:47.731Z,33.40
2023-01-26T23:29:56.156Z,26.60
2023-01-26T23:33:02.147Z,24.50
2023-01-26T23:36:09.237Z,30.48
2023-01-26T23:39:17.163Z,27.48
2023-01-26T23:42:22.500Z,19.58
2023-01-26T23:45:31.463Z,23.42
2023-01-26T23:48:37.261Z,20.90
2023-01-26T23:51:42.395Z,24.92
2023-01-26T23:54:49.362Z,25.50
2023-01-26T23:57:54.584Z,16.42
